Time;durP1;ratioP1;P1;durP2;ratioP2;P2;SDS_P1;SDS_P2;PMS_P1;PMS_P2;Temp;Humidity;BMP_temperature;BMP_pressure;BME280_temperature;BME280_humidity;BME280_pressure;Samples;Min_cycle;Max_cycle;Signal;HPM_P1;HPM_P2
2023/08/11 00:00:42;;;;;;;10.93;7.80;;;19.70;49.10;;;;;;4965272;28;20285;-81
2023/08/11 00:03:08;;;;;;;10.30;6.57;;;19.60;97.10;;;;;;4963460;28;20189;-81
2023/08/11 00:05:37;;;;;;;13.77;8.33;;;19.50;99.90;;;;;;4964765;28;20211;-82
2023/08/11 00:08:05;;;;;;;15.20;6.90;;;19.30;99.90;;;;;;4956413;28;21173;-82
2023/08/11 00:10:32;;;;;;;16.20;7.67;;;19.20;99.90;;;;;;4951773;28;20491;-81
2023/08/11 00:12:57;;;;;;;11.77;8.07;;;19.20;99.90;;;;;;4964117;28;20443;-81
2023/08/11 00:15:24;;;;;;;14.90;8.13;;;19.20;99.90;;;;;;4958507;28;20882;-82
2023/08/11 00:17:51;;;;;;;9.20;7.70;;;19.10;99.90;;;;;;4951297;28;20274;-82
2023/08/11 00:20:17;;;;;;;8.60;6.83;;;19.10;99.90;;;;;;4961732;28;20796;-81
2023/08/11 00:22:42;;;;;;;15.50;7.40;;;19.00;99.90;;;;;;4964671;28;20502;-82
2023/08/11 00:25:08;;;;;;;11.00;7.77;;;19.10;99.90;;;;;;4958830;28;20221;-81
2023/08/11 00:27:34;;;;;;;13.60;7.87;;;19.10;99.90;;;;;;4957939;28;20850;-81
2023/08/11 00:30:04;;;;;;;11.27;7.00;;;19.10;99.90;;;;;;4962914;28;20493;-81
2023/08/11 00:32:29;;;;;;;12.10;6.87;;;19.20;99.90;;;;;;4964057;28;20267;-81
2023/08/11 00:34:55;;;;;;;11.77;7.37;;;19.20;99.90;;;;;;4955308;28;20580;-84
2023/08/11 00:37:20;;;;;;;11.27;8.10;;;19.20;99.90;;;;;;4966040;28;20214;-82
2023/08/11 00:39:48;;;;;;;15.20;9.67;;;19.20;99.90;;;;;;4964895;28;20230;-82
2023/08/11 00:42:14;;;;;;;13.63;9.50;;;19.20;99.90;;;;;;4965205;28;20244;-81
2023/08/11 00:44:39;;;;;;;13.07;8.77;;;19.10;99.90;;;;;;4962171;28;20463;-83
2023/08/11 00:47:05;;;;;;;16.87;9.17;;;19.10;99.90;;;;;;4961377;28;20198;-83
2023/08/11 00:49:31;;;;;;;13.40;9.03;;;19.00;99.90;;;;;;4964953;28;20612;-80
2023/08/11 00:51:57;;;;;;;17.13;10.00;;;19.00;99.90;;;;;;4956528;28;20193;-84
2023/08/11 00:54:25;;;;;;;13.83;8.60;;;18.90;99.90;;;;;;4959510;28;20446;-81
2023/08/11 00:56:51;;;;;;;11.07;9.43;;;18.90;99.90;;;;;;4975647;28;20462;-83
2023/08/11 00:59:21;;;;;;;14.53;9.40;;;18.80;99.90;;;;;;4967059;28;20483;-81
2023/08/11 01:01:47;;;;;;;14.87;8.77;;;18.80;99.90;;;;;;4968703;28;20467;-80
2023/08/11 01:04:12;;;;;;;15.30;9.00;;;18.70;99.90;;;;;;4970308;28;20571;-83
2023/08/11 01:06:44;;;;;;;11.97;9.17;;;18.60;1.00;;;;;;4966182;28;20247;-81
2023/08/11 01:09:23;;;;;;;14.90;10.37;;;18.50;1.00;;;;;;4965023;28;20227;-82
2023/08/11 01:12:09;;;;;;;24.67;15.07;;;18.40;1.00;;;;;;4969027;28;20477;-82
2023/08/11 01:15:21;;;;;;;38.80;22.73;;;18.30;1.00;;;;;;4961335;28;20439;-82
2023/08/11 01:17:51;;;;;;;27.27;18.87;;;18.30;1.00;;;;;;4926696;28;20803;-81
2023/08/11 01:20:17;;;;;;;23.57;12.70;;;18.20;1.00;;;;;;4970592;28;20466;-80
2023/08/11 01:22:54;;;;;;;20.20;12.80;;;18.10;1.00;;;;;;4971326;28;20964;-82
2023/08/11 01:25:20;;;;;;;20.37;11.40;;;18.10;1.00;;;;;;4968864;28;20933;-82
2023/08/11 01:27:53;;;;;;;17.03;10.10;;;18.10;1.00;;;;;;4964559;28;20442;-83
2023/08/11 01:30:19;;;;;;;14.80;10.13;;;18.10;1.00;;;;;;4971096;28;20464;-82
2023/08/11 01:32:45;;;;;;;17.13;10.43;;;18.10;1.00;;;;;;4967274;28;20493;-82
2023/08/11 01:35:10;;;;;;;20.10;9.03;;;18.00;1.00;;;;;;4961977;28;20192;-81
2023/08/11 01:37:36;;;;;;;16.27;9.70;;;17.90;1.00;;;;;;4964329;28;20578;-81
2023/08/11 01:40:05;;;;;;;18.27;9.53;;;17.90;1.00;;;;;;4966973;28;20495;-79
2023/08/11 01:42:31;;;;;;;19.83;9.47;;;17.90;1.00;;;;;;4984278;28;20440;-81
2023/08/11 01:44:56;;;;;;;16.10;9.47;;;17.90;1.00;;;;;;4964385;28;20481;-81
2023/08/11 01:47:23;;;;;;;14.77;8.70;;;17.90;1.00;;;;;;4957639;28;20674;-82
2023/08/11 01:49:49;;;;;;;15.17;9.40;;;17.90;1.00;;;;;;4964885;28;20205;-80
2023/08/11 01:52:15;;;;;;;15.17;9.57;;;17.80;1.00;;;;;;4964498;28;20465;-81
2023/08/11 01:54:42;;;;;;;18.67;9.90;;;17.80;1.00;;;;;;4960483;28;20552;-81
2023/08/11 01:57:08;;;;;;;14.27;9.40;;;17.80;1.00;;;;;;4965789;28;20433;-81
2023/08/11 01:59:33;;;;;;;15.80;9.33;;;17.80;1.00;;;;;;4960237;28;20452;-79
2023/08/11 02:01:59;;;;;;;15.80;10.10;;;17.80;1.00;;;;;;4960311;28;20185;-82
2023/08/11 02:04:25;;;;;;;15.20;10.57;;;17.80;1.00;;;;;;4956010;28;20752;-81
2023/08/11 02:06:50;;;;;;;12.30;8.70;;;17.70;1.00;;;;;;4955974;28;20273;-81
2023/08/11 02:09:15;;;;;;;12.90;8.23;;;17.70;1.00;;;;;;4962337;28;20610;-81
2023/08/11 02:11:43;;;;;;;17.77;8.50;;;17.70;1.00;;;;;;4956071;28;20221;-81
2023/08/11 02:14:08;;;;;;;18.97;7.93;;;17.70;1.00;;;;;;4960251;28;20188;-81
2023/08/11 02:16:35;;;;;;;17.87;9.07;;;17.70;1.00;;;;;;4957864;28;20457;-83
2023/08/11 02:19:01;;;;;;;12.33;8.97;;;17.70;1.00;;;;;;4957212;28;22706;-81
2023/08/11 02:21:31;;;;;;;12.90;9.60;;;17.70;1.00;;;;;;4960048;28;20441;-80
2023/08/11 02:23:56;;;;;;;16.60;10.23;;;17.70;1.00;;;;;;4958990;28;20943;-81
2023/08/11 02:26:22;;;;;;;16.03;9.43;;;17.60;1.00;;;;;;4962188;28;20477;-79
2023/08/11 02:28:48;;;;;;;13.90;9.00;;;17.60;1.00;;;;;;4966025;28;20213;-81
2023/08/11 02:31:17;;;;;;;16.30;9.20;;;17.60;1.00;;;;;;4962980;28;20804;-81
2023/08/11 02:33:43;;;;;;;14.10;8.77;;;17.60;1.00;;;;;;4963616;28;20196;-81
2023/08/11 02:36:09;;;;;;;17.80;9.47;;;17.60;1.00;;;;;;4965522;28;25136;-81
2023/08/11 02:38:37;;;;;;;14.60;9.23;;;17.70;1.00;;;;;;4969732;28;20324;-81
2023/08/11 02:41:03;;;;;;;15.17;9.50;;;17.70;1.00;;;;;;4963868;28;20214;-81
2023/08/11 02:43:28;;;;;;;12.80;9.47;;;17.70;1.00;;;;;;4965752;28;20437;-81
2023/08/11 02:45:54;;;;;;;17.13;8.97;;;17.70;1.00;;;;;;4963363;28;20478;-81
2023/08/11 02:48:19;;;;;;;13.80;8.83;;;17.60;1.00;;;;;;4965505;28;21137;-82
2023/08/11 02:50:45;;;;;;;14.17;8.90;;;17.70;1.00;;;;;;4964811;28;20679;-82
2023/08/11 02:53:10;;;;;;;14.70;8.97;;;17.70;1.00;;;;;;4964619;28;20185;-81
2023/08/11 02:55:36;;;;;;;12.77;8.63;;;17.70;1.00;;;;;;4963718;28;20565;-81
2023/08/11 02:58:02;;;;;;;13.30;9.10;;;17.70;1.00;;;;;;4960744;28;20205;-83
2023/08/11 03:00:28;;;;;;;19.90;9.47;;;17.80;1.00;;;;;;4963850;28;20264;-81
2023/08/11 03:02:54;;;;;;;11.50;8.07;;;17.80;99.90;;;;;;4961868;28;20755;-82
2023/08/11 03:05:20;;;;;;;12.00;8.20;;;17.80;99.90;;;;;;4965511;28;20473;-81
2023/08/11 03:07:45;;;;;;;16.00;8.43;;;17.80;99.90;;;;;;4963469;28;20185;-82
2023/08/11 03:10:11;;;;;;;10.47;8.37;;;17.80;99.90;;;;;;4961783;28;20216;-79
2023/08/11 03:12:37;;;;;;;16.53;9.03;;;17.80;99.90;;;;;;4960459;28;20216;-82
2023/08/11 03:15:08;;;;;;;17.10;8.80;;;17.70;99.90;;;;;;4959271;28;20212;-82
2023/08/11 03:17:35;;;;;;;15.17;8.87;;;17.70;99.90;;;;;;4958853;28;20450;-82
2023/08/11 03:20:01;;;;;;;14.27;9.40;;;17.60;99.90;;;;;;4959298;28;20549;-83
2023/08/11 03:22:26;;;;;;;11.80;8.23;;;17.60;99.90;;;;;;4973501;28;20973;-80
2023/08/11 03:24:52;;;;;;;12.50;8.07;;;17.50;99.90;;;;;;4973581;28;20188;-81
2023/08/11 03:27:18;;;;;;;17.23;9.23;;;17.50;1.00;;;;;;4975076;28;20622;-80
2023/08/11 03:29:44;;;;;;;15.37;9.23;;;17.50;1.00;;;;;;4974038;28;20632;-81
2023/08/11 03:32:09;;;;;;;11.27;7.73;;;17.50;1.00;;;;;;4966060;28;20478;-82
2023/08/11 03:34:38;;;;;;;13.27;8.80;;;17.50;1.00;;;;;;4974983;28;20267;-80
2023/08/11 03:37:05;;;;;;;11.80;8.37;;;17.50;99.90;;;;;;4973218;28;20654;-81
2023/08/11 03:39:30;;;;;;;13.60;8.60;;;17.50;1.00;;;;;;4974445;28;20456;-81
2023/08/11 03:42:02;;;;;;;14.03;8.27;;;17.50;1.00;;;;;;4974097;28;20926;-81
2023/08/11 03:44:57;;;;;;;11.63;8.17;;;17.50;1.00;;;;;;4973335;28;20197;-81
2023/08/11 03:47:23;;;;;;;14.20;8.27;;;17.40;1.00;;;;;;4970557;28;21475;-81
2023/08/11 03:49:48;;;;;;;12.40;8.77;;;17.50;1.00;;;;;;4971660;28;20532;-81
2023/08/11 03:52:14;;;;;;;11.10;7.93;;;17.50;1.00;;;;;;4970062;28;20234;-79
2023/08/11 03:54:45;;;;;;;11.57;8.63;;;17.40;1.00;;;;;;4972802;28;20187;-81
2023/08/11 03:57:11;;;;;;;13.60;7.90;;;17.40;1.00;;;;;;4969623;28;20188;-81
2023/08/11 03:59:36;;;;;;;13.63;8.03;;;17.40;1.00;;;;;;4984833;28;20572;-80
2023/08/11 04:02:02;;;;;;;16.30;9.10;;;17.40;1.00;;;;;;4954538;28;20328;-80
2023/08/11 04:04:28;;;;;;;11.90;7.60;;;17.30;1.00;;;;;;4967884;28;20743;-81
2023/08/11 04:06:56;;;;;;;14.80;9.07;;;17.40;1.00;;;;;;4977149;28;20733;-81
2023/08/11 04:09:22;;;;;;;13.57;7.97;;;17.40;1.00;;;;;;4978652;28;20197;-82
2023/08/11 04:11:48;;;;;;;13.67;7.93;;;17.40;1.00;;;;;;4972385;28;20494;-83
2023/08/11 04:14:21;;;;;;;16.40;8.37;;;17.30;1.00;;;;;;4979730;28;20246;-79
2023/08/11 04:16:49;;;;;;;11.60;7.63;;;17.20;1.00;;;;;;4980393;28;20427;-80
2023/08/11 04:19:20;;;;;;;15.87;8.70;;;17.20;1.00;;;;;;4979630;28;20463;-79
2023/08/11 04:21:49;;;;;;;14.13;8.70;;;17.20;1.00;;;;;;4967132;28;20532;-82
2023/08/11 04:24:15;;;;;;;14.80;8.50;;;17.20;1.00;;;;;;4969081;28;20441;-82
2023/08/11 04:26:44;;;;;;;24.60;8.80;;;17.10;1.00;;;;;;4970691;28;20462;-82
2023/08/11 04:29:09;;;;;;;17.00;10.20;;;17.00;24.10;;;;;;4973102;28;20460;-81
2023/08/11 04:31:35;;;;;;;13.10;7.70;;;17.00;90.80;;;;;;4979954;28;20485;-81
2023/08/11 04:34:00;;;;;;;16.57;8.43;;;17.00;99.90;;;;;;4977904;28;20208;-81
2023/08/11 04:36:37;;;;;;;20.73;8.90;;;17.00;99.90;;;;;;4962680;28;20186;-81
2023/08/11 04:39:05;;;;;;;11.87;8.60;;;17.00;99.90;;;;;;4959719;28;20221;-81
2023/08/11 04:41:40;;;;;;;21.80;8.83;;;17.10;99.90;;;;;;4965156;28;20422;-80
2023/08/11 04:44:05;;;;;;;20.70;8.70;;;17.20;66.10;;;;;;4958680;28;20443;-81
2023/08/11 04:46:33;;;;;;;16.43;8.90;;;17.30;1.00;;;;;;4962847;28;20463;-82
2023/08/11 04:49:01;;;;;;;14.30;9.00;;;17.40;1.00;;;;;;4963881;28;20197;-82
2023/08/11 04:51:27;;;;;;;17.70;9.00;;;17.50;1.00;;;;;;4958622;28;20953;-81
2023/08/11 04:53:54;;;;;;;15.13;8.10;;;17.60;1.00;;;;;;4961056;28;20452;-80
2023/08/11 04:56:20;;;;;;;11.77;8.10;;;17.70;1.00;;;;;;4972896;28;20180;-81
2023/08/11 04:58:45;;;;;;;13.97;7.97;;;17.80;1.00;;;;;;4976734;28;20878;-81
2023/08/11 05:01:14;;;;;;;15.90;8.53;;;17.80;99.90;;;;;;4975954;28;20184;-81
2023/08/11 05:03:49;;;;;;;11.10;7.60;;;17.90;99.90;;;;;;4975418;28;20251;-82
2023/08/11 05:06:14;;;;;;;11.53;7.67;;;17.90;99.90;;;;;;4974514;28;20471;-81
2023/08/11 05:08:42;;;;;;;9.83;7.50;;;18.00;99.90;;;;;;4977077;28;21327;-81
2023/08/11 05:11:09;;;;;;;13.90;8.23;;;18.10;99.90;;;;;;4970678;28;20190;-80
2023/08/11 05:13:35;;;;;;;12.93;7.73;;;18.10;99.90;;;;;;4966081;28;20488;-81
2023/08/11 05:16:01;;;;;;;12.33;7.20;;;18.20;99.90;;;;;;4959535;28;20577;-81
2023/08/11 05:18:26;;;;;;;13.43;7.40;;;18.20;99.90;;;;;;4963444;28;20215;-82
2023/08/11 05:20:52;;;;;;;14.37;8.20;;;18.30;99.90;;;;;;4965651;28;20209;-81
2023/08/11 05:23:18;;;;;;;16.87;7.60;;;18.20;99.90;;;;;;4975146;28;20604;-80
2023/08/11 05:25:44;;;;;;;10.30;7.50;;;18.10;99.90;;;;;;4972467;28;20243;-81
2023/08/11 05:28:10;;;;;;;10.10;6.90;;;18.30;99.90;;;;;;4962391;28;20545;-81
2023/08/11 05:30:36;;;;;;;11.80;7.50;;;18.40;99.90;;;;;;4966986;28;20193;-78
2023/08/11 05:33:01;;;;;;;12.30;7.20;;;18.70;99.90;;;;;;4974931;28;20445;-81
2023/08/11 05:35:29;;;;;;;10.83;7.47;;;19.10;99.90;;;;;;4971651;28;20202;-81
2023/08/11 05:37:54;;;;;;;11.17;7.20;;;19.90;1.00;;;;;;4975754;28;20209;-82
2023/08/11 05:40:20;;;;;;;9.47;6.30;;;22.10;1.00;;;;;;4976733;28;20552;-82
2023/08/11 05:42:46;;;;;;;11.73;6.27;;;24.50;1.00;;;;;;4974155;28;20267;-83
2023/08/11 05:45:11;;;;;;;9.50;7.10;;;27.00;1.00;;;;;;4969722;28;20254;-82
2023/08/11 05:47:37;;;;;;;9.27;6.77;;;29.00;99.90;;;;;;4965065;28;20184;-81
2023/08/11 05:50:03;;;;;;;23.83;7.57;;;30.50;99.90;;;;;;4974503;28;20212;-83
2023/08/11 05:52:28;;;;;;;25.27;7.13;;;32.00;99.90;;;;;;4975798;28;20188;-83
2023/08/11 05:54:54;;;;;;;11.37;6.23;;;33.30;99.90;;;;;;4974741;28;20948;-83
2023/08/11 05:57:20;;;;;;;10.40;5.67;;;34.10;99.90;;;;;;4976045;28;20207;-84
2023/08/11 05:59:45;;;;;;;9.00;5.60;;;35.50;99.90;;;;;;4969741;28;20203;-83
2023/08/11 06:02:11;;;;;;;6.67;5.60;;;36.50;99.90;;;;;;4961542;28;20264;-82
2023/08/11 06:04:36;;;;;;;9.70;5.33;;;37.70;99.90;;;;;;4981197;28;20547;-82
2023/08/11 06:07:02;;;;;;;7.00;4.70;;;38.20;99.90;;;;;;4971165;28;20216;-81
2023/08/11 06:09:28;;;;;;;11.43;4.57;;;38.80;99.90;;;;;;4965789;28;20578;-82
2023/08/11 06:11:53;;;;;;;16.20;5.37;;;39.20;99.90;;;;;;4973290;28;20176;-82
2023/08/11 06:14:19;;;;;;;12.93;4.83;;;40.60;99.90;;;;;;4968888;28;20196;-82
2023/08/11 06:16:44;;;;;;;9.03;4.73;;;41.30;99.90;;;;;;4966548;28;20272;-83
2023/08/11 06:19:10;;;;;;;7.53;4.27;;;43.90;99.90;;;;;;4976191;28;20248;-83
2023/08/11 06:21:36;;;;;;;8.40;4.90;;;44.90;99.90;;;;;;4961853;28;20192;-81
2023/08/11 06:24:03;;;;;;;6.10;4.70;;;47.10;99.90;;;;;;4972561;28;20191;-80
2023/08/11 06:26:28;;;;;;;4.77;4.00;;;48.50;99.90;;;;;;4972778;28;20678;-78
2023/08/11 06:28:54;;;;;;;6.50;4.10;;;50.20;99.90;;;;;;4959772;28;20200;-81
2023/08/11 06:31:19;;;;;;;8.32;4.45;;;51.60;99.90;;;;;;4964694;28;20172;-80
2023/08/11 06:33:45;;;;;;;5.10;3.80;;;51.80;99.90;;;;;;4964514;28;20187;-81
2023/08/11 06:36:11;;;;;;;8.90;4.20;;;51.20;99.90;;;;;;4962859;28;20189;-78
2023/08/11 06:38:37;;;;;;;6.68;4.18;;;52.90;99.90;;;;;;4966955;28;20218;-81
2023/08/11 06:41:03;;;;;;;4.10;3.70;;;53.30;99.90;;;;;;4963203;28;20200;-81
2023/08/11 06:43:29;;;;;;;6.20;4.28;;;53.20;99.90;;;;;;4956124;28;20215;-82
2023/08/11 06:45:55;;;;;;;6.05;4.10;;;54.40;99.90;;;;;;4960146;28;20212;-81
2023/08/11 06:48:21;;;;;;;5.18;3.50;;;54.10;99.90;;;;;;4957644;28;20792;-82
2023/08/11 06:50:46;;;;;;;6.32;3.50;;;53.70;99.90;;;;;;4966412;28;20188;-81
2023/08/11 06:53:12;;;;;;;8.25;4.10;;;54.60;99.90;;;;;;4952288;28;20192;-82
2023/08/11 06:55:37;;;;;;;4.10;3.38;;;55.40;99.90;;;;;;4967054;28;20184;-81
2023/08/11 06:58:03;;;;;;;4.45;3.83;;;55.70;99.90;;;;;;4967217;28;20198;-80
2023/08/11 07:00:28;;;;;;;5.00;2.97;;;55.90;99.90;;;;;;4968002;28;20199;-80
2023/08/11 07:02:54;;;;;;;3.40;3.10;;;56.20;99.90;;;;;;4968376;28;20179;-81
2023/08/11 07:05:20;;;;;;;5.60;3.55;;;56.70;99.90;;;;;;4963697;28;20206;-81
2023/08/11 07:07:45;;;;;;;4.13;3.53;;;55.90;99.90;;;;;;4969378;28;20547;-80
2023/08/11 07:10:11;;;;;;;4.25;3.45;;;56.30;99.90;;;;;;4960964;28;20207;-83
2023/08/11 07:12:37;;;;;;;4.93;3.05;;;57.10;99.90;;;;;;4973891;28;20188;-83
2023/08/11 07:15:03;;;;;;;5.15;3.42;;;56.10;99.90;;;;;;4962083;28;20824;-83
2023/08/11 07:17:28;;;;;;;5.65;3.78;;;56.60;99.90;;;;;;4971417;28;20214;-82
2023/08/11 07:19:54;;;;;;;5.35;3.28;;;56.30;99.90;;;;;;4971411;28;20200;-82
2023/08/11 07:22:19;;;;;;;5.18;3.25;;;57.00;99.90;;;;;;4960528;28;20300;-81
2023/08/11 07:24:45;;;;;;;6.07;3.00;;;56.90;99.90;;;;;;4963672;28;20188;-81
2023/08/11 07:27:10;;;;;;;3.30;2.97;;;57.50;99.90;;;;;;4975487;28;20222;-82
2023/08/11 07:29:36;;;;;;;3.38;3.08;;;58.10;99.90;;;;;;4978957;28;20674;-82
2023/08/11 07:32:04;;;;;;;6.43;3.30;;;57.90;99.90;;;;;;4970206;28;20191;-82
2023/08/11 07:34:29;;;;;;;5.03;3.38;;;57.30;99.90;;;;;;4962618;28;20216;-83
2023/08/11 07:36:55;;;;;;;8.27;2.95;;;57.30;99.90;;;;;;4968047;28;20212;-82
2023/08/11 07:39:20;;;;;;;4.35;3.08;;;57.20;99.60;;;;;;4966226;28;20226;-82
2023/08/11 07:41:46;;;;;;;4.38;3.03;;;58.00;92.00;;;;;;4974118;28;20187;-81
2023/08/11 07:44:11;;;;;;;5.40;3.10;;;58.50;74.50;;;;;;4974915;28;20199;-82
2023/08/11 07:46:37;;;;;;;3.90;3.17;;;58.60;27.70;;;;;;4969978;28;20796;-82
2023/08/11 07:49:02;;;;;;;6.95;3.60;;;58.20;14.80;;;;;;4967171;28;20212;-82
2023/08/11 07:51:28;;;;;;;4.55;2.90;;;57.30;10.20;;;;;;4966796;28;20183;-82
2023/08/11 07:53:54;;;;;;;4.82;3.10;;;57.00;9.60;;;;;;4974512;28;20207;-79
2023/08/11 07:56:19;;;;;;;4.40;2.90;;;57.20;9.30;;;;;;4971756;28;20669;-81
2023/08/11 07:58:46;;;;;;;5.72;2.75;;;57.30;9.10;;;;;;4972974;28;20759;-82
2023/08/11 08:01:11;;;;;;;6.22;3.15;;;57.60;9.00;;;;;;4970954;28;20560;-83
2023/08/11 08:03:37;;;;;;;4.57;2.97;;;57.90;8.40;;;;;;4972997;28;20267;-83
2023/08/11 08:06:04;;;;;;;3.38;3.08;;;58.10;8.20;;;;;;4981899;28;20223;-83
2023/08/11 08:08:31;;;;;;;3.42;2.50;;;58.60;6.90;;;;;;4966779;28;20259;-82
2023/08/11 08:10:57;;;;;;;4.60;2.50;;;58.90;6.70;;;;;;4966407;28;20180;-81
2023/08/11 08:13:22;;;;;;;2.88;2.53;;;59.00;10.60;;;;;;4965023;28;20195;-80
2023/08/11 08:15:48;;;;;;;3.50;2.67;;;58.60;13.30;;;;;;4963766;28;20223;-81
2023/08/11 08:18:13;;;;;;;3.03;2.28;;;58.50;13.30;;;;;;4962067;28;20537;-82
2023/08/11 08:20:39;;;;;;;3.28;2.97;;;58.20;12.80;;;;;;4962666;28;20184;-81
2023/08/11 08:23:04;;;;;;;3.88;2.13;;;58.50;13.10;;;;;;4957805;28;20183;-80
2023/08/11 08:25:30;;;;;;;3.72;2.22;;;58.50;12.80;;;;;;4966756;28;20278;-80
2023/08/11 08:27:55;;;;;;;2.08;1.88;;;58.40;12.10;;;;;;4964876;28;20181;-80
2023/08/11 08:30:21;;;;;;;4.43;2.47;;;58.20;11.70;;;;;;4962212;28;20208;-82
2023/08/11 08:32:46;;;;;;;2.78;2.10;;;57.90;11.40;;;;;;4966483;28;20242;-81
2023/08/11 08:35:12;;;;;;;6.75;2.30;;;57.30;10.30;;;;;;4962849;28;20298;-83
2023/08/11 08:37:38;;;;;;;3.80;2.00;;;57.30;9.20;;;;;;4962020;28;20203;-81
2023/08/11 08:40:04;;;;;;;10.20;2.10;;;57.60;11.20;;;;;;4962985;28;20208;-80
2023/08/11 08:42:30;;;;;;;4.13;2.33;;;57.10;12.00;;;;;;4966234;28;20539;-81
2023/08/11 08:44:57;;;;;;;3.28;2.30;;;56.90;20.40;;;;;;4989232;28;20195;-82
2023/08/11 08:47:24;;;;;;;3.70;2.20;;;56.80;10.00;;;;;;4965399;28;20188;-79
2023/08/11 08:49:50;;;;;;;3.35;2.17;;;56.70;9.70;;;;;;4965087;28;20202;-83
2023/08/11 08:52:16;;;;;;;4.95;2.25;;;56.50;11.10;;;;;;4966372;28;20208;-81
2023/08/11 08:54:43;;;;;;;1.85;1.75;;;56.10;13.60;;;;;;4972601;28;20188;-81
2023/08/11 08:57:09;;;;;;;2.45;2.00;;;55.90;12.20;;;;;;4972988;28;20286;-81
2023/08/11 08:59:38;;;;;;;2.03;1.83;;;55.70;11.20;;;;;;4973300;28;20199;-80
2023/08/11 09:02:06;;;;;;;3.65;2.05;;;55.40;10.20;;;;;;4972864;28;20191;-83
2023/08/11 09:04:32;;;;;;;2.80;1.67;;;55.40;11.70;;;;;;4963681;28;20211;-81
2023/08/11 09:06:58;;;;;;;4.10;2.15;;;55.60;10.70;;;;;;4969560;28;20230;-80
2023/08/11 09:09:24;;;;;;;3.22;1.92;;;55.90;13.00;;;;;;4966827;28;20637;-82
2023/08/11 09:11:50;;;;;;;1.90;1.80;;;55.80;11.40;;;;;;4961132;28;20235;-82
2023/08/11 09:14:19;;;;;;;3.25;2.17;;;55.60;12.40;;;;;;4966359;28;20198;-84
2023/08/11 09:16:45;;;;;;;2.83;1.92;;;55.30;11.20;;;;;;4970423;28;20223;-80
2023/08/11 09:19:12;;;;;;;4.13;2.25;;;55.10;11.50;;;;;;4969425;28;20204;-81
2023/08/11 09:21:41;;;;;;;2.58;1.60;;;54.80;11.60;;;;;;4960458;28;20191;-81
2023/08/11 09:24:12;;;;;;;2.92;1.70;;;54.90;11.80;;;;;;4970514;28;20188;-83
2023/08/11 09:26:40;;;;;;;4.75;2.30;;;54.90;10.90;;;;;;4969411;28;20671;-79
2023/08/11 09:29:05;;;;;;;2.53;1.60;;;54.70;14.90;;;;;;4971057;28;20219;-81
2023/08/11 09:31:31;;;;;;;2.92;1.77;;;54.60;12.90;;;;;;4963858;28;20190;-81
2023/08/11 09:34:09;;;;;;;2.70;1.58;;;54.30;14.10;;;;;;4964569;28;20211;-81
2023/08/11 09:36:35;;;;;;;1.73;1.63;;;54.20;13.60;;;;;;4968712;28;20204;-80
2023/08/11 09:39:06;;;;;;;2.63;1.45;;;53.90;22.90;;;;;;4962643;28;20228;-80
2023/08/11 09:41:44;;;;;;;2.53;2.03;;;53.90;23.70;;;;;;4961998;28;20193;-81
2023/08/11 09:44:17;;;;;;;2.40;1.98;;;53.60;23.30;;;;;;4967313;28;20282;-80
2023/08/11 09:46:43;;;;;;;2.70;1.95;;;53.60;31.10;;;;;;4962010;28;20187;-80
2023/08/11 09:49:09;;;;;;;3.15;1.55;;;53.80;28.40;;;;;;4968410;28;20211;-79
2023/08/11 09:51:35;;;;;;;1.92;1.58;;;53.80;35.60;;;;;;4968994;28;20192;-80
2023/08/11 09:54:07;;;;;;;1.52;1.40;;;53.70;36.00;;;;;;4967718;28;20184;-81
2023/08/11 09:56:40;;;;;;;2.33;1.80;;;53.60;36.20;;;;;;4969343;28;20248;-81
2023/08/11 09:59:22;;;;;;;3.08;2.10;;;53.60;42.00;;;;;;4960026;28;20199;-81
2023/08/11 10:01:51;;;;;;;6.35;2.08;;;53.60;55.30;;;;;;4963966;28;20197;-83
2023/08/11 10:04:28;;;;;;;2.55;1.98;;;53.30;59.50;;;;;;4973071;28;22772;-83
2023/08/11 10:06:57;;;;;;;4.22;1.85;;;53.40;90.50;;;;;;4966364;28;20188;-83
2023/08/11 10:09:24;;;;;;;2.40;2.00;;;53.60;66.60;;;;;;4971207;28;20204;-82
2023/08/11 10:11:52;;;;;;;3.03;1.73;;;53.80;62.10;;;;;;4969411;28;20180;-81
2023/08/11 10:14:20;;;;;;;2.42;2.15;;;53.50;55.20;;;;;;4974786;28;20191;-82
2023/08/11 10:16:46;;;;;;;2.78;1.83;;;53.20;52.30;;;;;;4958904;28;20259;-81
2023/08/11 10:19:12;;;;;;;2.50;1.87;;;53.20;99.90;;;;;;4963170;28;20686;-81
2023/08/11 10:21:39;;;;;;;1.90;1.70;;;53.60;99.90;;;;;;4966573;28;20202;-81
2023/08/11 10:24:05;;;;;;;2.27;1.87;;;53.80;99.90;;;;;;4969400;28;20251;-80
2023/08/11 10:26:31;;;;;;;4.07;2.33;;;53.80;99.90;;;;;;4963588;28;20258;-78
2023/08/11 10:28:57;;;;;;;2.10;1.90;;;53.40;99.90;;;;;;4967985;28;20219;-80
2023/08/11 10:31:26;;;;;;;2.53;1.70;;;53.00;99.90;;;;;;4960856;28;20228;-80
2023/08/11 10:33:53;;;;;;;3.83;2.00;;;53.20;99.70;;;;;;4964647;28;20565;-82
2023/08/11 10:36:23;;;;;;;4.00;2.00;;;52.90;99.20;;;;;;4960387;28;20207;-83
2023/08/11 10:39:05;;;;;;;2.33;1.93;;;52.80;98.30;;;;;;4971859;28;20204;-82
2023/08/11 10:41:32;;;;;;;2.07;1.87;;;52.60;96.00;;;;;;4966388;28;20190;-79
2023/08/11 10:43:58;;;;;;;3.60;1.80;;;52.50;99.90;;;;;;4968984;28;20210;-80
2023/08/11 10:46:27;;;;;;;4.27;2.30;;;52.40;99.90;;;;;;4959470;28;20187;-81
2023/08/11 10:48:59;;;;;;;5.83;1.97;;;52.20;97.90;;;;;;4960711;28;20270;-80
2023/08/11 10:51:32;;;;;;;2.70;2.30;;;51.80;96.90;;;;;;4960262;28;20252;-81
2023/08/11 10:54:20;;;;;;;3.10;2.03;;;50.90;94.80;;;;;;4959956;28;20816;-81
2023/08/11 10:56:46;;;;;;;3.97;1.90;;;50.90;99.90;;;;;;4988088;28;20521;-80
2023/08/11 10:59:15;;;;;;;3.20;2.20;;;50.80;99.90;;;;;;4969858;28;20446;-79
2023/08/11 11:01:43;;;;;;;1.97;1.53;;;50.80;25.80;;;;;;4971761;28;20180;-81
2023/08/11 11:04:09;;;;;;;2.97;1.90;;;50.40;19.90;;;;;;4969805;28;20445;-82
2023/08/11 11:06:36;;;;;;;2.70;2.17;;;50.20;19.70;;;;;;4964194;28;20418;-81
2023/08/11 11:09:04;;;;;;;5.43;1.87;;;50.20;25.90;;;;;;4980363;28;20489;-80
2023/08/11 11:11:30;;;;;;;2.93;1.97;;;50.00;29.20;;;;;;4967567;28;20458;-83
2023/08/11 11:13:57;;;;;;;2.87;1.90;;;50.20;34.60;;;;;;4972714;28;20472;-81
2023/08/11 11:16:22;;;;;;;3.20;1.90;;;50.30;37.00;;;;;;4972020;28;20455;-78
2023/08/11 11:18:49;;;;;;;4.33;2.17;;;49.80;39.50;;;;;;4960342;28;20481;-82
2023/08/11 11:21:15;;;;;;;2.20;2.00;;;49.70;39.80;;;;;;4963491;28;20658;-82
2023/08/11 11:23:51;;;;;;;3.23;1.90;;;49.70;46.80;;;;;;4958677;28;20575;-82
2023/08/11 11:26:24;;;;;;;5.07;1.90;;;49.60;72.00;;;;;;4974102;28;20530;-81
2023/08/11 11:28:51;;;;;;;4.37;2.10;;;49.70;93.60;;;;;;4957510;28;20469;-84
2023/08/11 11:31:17;;;;;;;2.90;2.23;;;49.90;99.90;;;;;;4961151;28;20448;-80
2023/08/11 11:33:43;;;;;;;4.90;2.00;;;49.20;99.90;;;;;;4955962;28;20444;-79
2023/08/11 11:36:10;;;;;;;3.27;2.00;;;49.10;99.90;;;;;;4955398;28;20475;-82
2023/08/11 11:38:36;;;;;;;2.07;1.80;;;48.60;99.90;;;;;;4961553;28;20835;-78
2023/08/11 11:41:01;;;;;;;3.20;2.03;;;48.30;99.90;;;;;;4963804;28;20443;-79
2023/08/11 11:43:27;;;;;;;2.77;2.00;;;48.00;99.90;;;;;;4959910;28;20949;-81
2023/08/11 11:45:53;;;;;;;3.07;2.47;;;48.40;99.90;;;;;;4958472;28;20195;-81
2023/08/11 11:48:23;;;;;;;2.67;2.10;;;48.50;99.90;;;;;;4963434;28;20246;-80
2023/08/11 11:50:49;;;;;;;3.60;2.23;;;48.70;99.90;;;;;;4955743;28;20806;-81
2023/08/11 11:53:15;;;;;;;2.20;2.00;;;48.50;99.90;;;;;;4960989;28;20538;-81
2023/08/11 11:55:47;;;;;;;2.90;1.87;;;48.40;99.90;;;;;;4959667;28;20534;-80
2023/08/11 11:58:17;;;;;;;3.17;2.07;;;48.20;99.90;;;;;;4959756;28;20180;-80
2023/08/11 12:00:45;;;;;;;2.27;1.73;;;47.90;99.90;;;;;;4958081;28;20443;-80
2023/08/11 12:03:11;;;;;;;3.10;1.40;;;47.60;99.90;;;;;;4955169;28;20455;-82
2023/08/11 12:05:37;;;;;;;2.87;2.30;;;47.20;99.90;;;;;;4963853;28;20439;-81
2023/08/11 12:08:23;;;;;;;4.77;2.33;;;46.90;99.90;;;;;;4964435;28;20443;-82
2023/08/11 12:10:49;;;;;;;3.60;2.23;;;46.90;99.90;;;;;;4955937;28;20643;-80
2023/08/11 12:13:17;;;;;;;2.27;2.07;;;46.90;99.90;;;;;;4961446;28;20448;-81
2023/08/11 12:15:46;;;;;;;3.20;2.50;;;46.50;99.90;;;;;;4961107;28;20196;-81
2023/08/11 12:18:13;;;;;;;2.27;2.07;;;46.40;99.90;;;;;;4961740;28;20509;-79
2023/08/11 12:20:39;;;;;;;5.80;2.50;;;46.70;99.90;;;;;;4960631;28;20858;-77
2023/08/11 12:23:05;;;;;;;3.87;2.67;;;46.70;99.90;;;;;;4957398;28;20440;-80
2023/08/11 12:25:30;;;;;;;3.87;2.37;;;46.80;99.90;;;;;;4957205;28;20644;-79
2023/08/11 12:27:56;;;;;;;4.53;2.37;;;46.70;99.90;;;;;;4965189;28;20604;-78
2023/08/11 12:30:22;;;;;;;2.77;2.57;;;46.00;99.90;;;;;;4954665;28;20208;-81
2023/08/11 12:32:48;;;;;;;3.30;2.50;;;45.60;99.90;;;;;;4955988;28;20351;-78
2023/08/11 12:35:14;;;;;;;4.43;1.73;;;45.30;99.90;;;;;;4961836;28;20220;-80
2023/08/11 12:37:39;;;;;;;2.37;2.17;;;44.90;99.90;;;;;;4955081;28;20447;-78
2023/08/11 12:40:09;;;;;;;3.17;2.20;;;44.70;99.90;;;;;;4961275;28;20275;-79
2023/08/11 12:42:35;;;;;;;2.70;2.30;;;44.00;99.90;;;;;;4962898;28;20190;-78
2023/08/11 12:45:05;;;;;;;2.97;2.67;;;43.70;99.90;;;;;;4964524;28;20451;-79